createdAt,value
2022-10-18T00:00:52.992Z,78.63
2022-10-18T00:03:59.545Z,79.59
2022-10-18T00:07:05.816Z,80.08
2022-10-18T00:10:11.767Z,79.11
2022-10-18T00:13:18.607Z,78.19
2022-10-18T00:16:21.291Z,77.91
2022-10-18T00:19:28.590Z,78.14
2022-10-18T00:22:34.721Z,77.87
2022-10-18T00:25:40.508Z,77.72
2022-10-18T00:28:47.223Z,77.45
2022-10-18T00:31:53.676Z,77.03
2022-10-18T00:35:00.042Z,77.02
2022-10-18T00:38:05.344Z,77.26
2022-10-18T00:41:11.337Z,77.72
2022-10-18T00:44:23.790Z,78.01
2022-10-18T00:47:30.318Z,78.29
2022-10-18T00:50:36.816Z,78.34
2022-10-18T00:53:41.686Z,77.47
2022-10-18T00:56:46.811Z,78.19
2022-10-18T00:59:53.157Z,79.48
2022-10-18T01:03:00.198Z,79.53
2022-10-18T01:06:05.309Z,79.52
2022-10-18T01:09:22.561Z,79.26
2022-10-18T01:12:55.100Z,78.98
2022-10-18T01:16:14.303Z,79.23
2022-10-18T01:19:26.681Z,79.12
2022-10-18T01:22:52.645Z,78.98
2022-10-18T01:26:37.831Z,79.26
2022-10-18T01:30:05.829Z,79.34
2022-10-18T01:33:23.699Z,78.53
2022-10-18T01:36:41.636Z,77.85
2022-10-18T01:39:49.440Z,77.57
2022-10-18T01:42:55.214Z,77.23
2022-10-18T01:45:54.768Z,77.21
2022-10-18T01:49:00.440Z,77.17
2022-10-18T01:52:05.894Z,76.62
2022-10-18T01:55:13.020Z,77.20
2022-10-18T01:58:38.557Z,78.08
2022-10-18T02:02:06.569Z,78.03
2022-10-18T02:05:25.490Z,78.12
2022-10-18T02:08:51.505Z,78.83
2022-10-18T02:11:58.123Z,78.57
2022-10-18T02:15:05.079Z,78.06
2022-10-18T02:18:10.646Z,78.87
2022-10-18T02:21:17.422Z,77.69
2022-10-18T02:24:24.451Z,76.39
2022-10-18T02:27:29.956Z,75.24
2022-10-18T02:30:38.624Z,74.37
2022-10-18T02:33:49.015Z,73.71
2022-10-18T02:37:14.824Z,73.80
2022-10-18T02:40:22.217Z,73.05
2022-10-18T02:43:27.900Z,73.39
2022-10-18T02:46:34.882Z,72.84
2022-10-18T02:49:40.909Z,72.59
2022-10-18T02:52:46.291Z,72.84
2022-10-18T02:55:52.255Z,73.21
2022-10-18T02:58:57.489Z,73.71
2022-10-18T03:02:02.126Z,73.94
2022-10-18T03:05:08.924Z,75.94
2022-10-18T03:08:15.060Z,76.59
2022-10-18T03:11:21.106Z,76.51
2022-10-18T03:14:26.657Z,76.10
2022-10-18T03:17:31.571Z,75.74
2022-10-18T03:20:37.174Z,75.30
2022-10-18T03:23:43.635Z,75.43
2022-10-18T03:26:50.398Z,75.06
2022-10-18T03:29:57.314Z,75.08
2022-10-18T03:33:03.816Z,74.20
2022-10-18T03:36:09.220Z,74.18
2022-10-18T03:39:14.953Z,74.36
2022-10-18T03:42:20.957Z,74.01
2022-10-18T03:45:29.020Z,73.67
2022-10-18T03:48:35.673Z,73.35
2022-10-18T03:51:42.186Z,74.09
2022-10-18T03:54:48.156Z,73.23
2022-10-18T03:57:54.000Z,74.72
2022-10-18T04:01:00.047Z,74.40
2022-10-18T04:04:06.055Z,74.81
2022-10-18T04:07:12.506Z,74.69
2022-10-18T04:10:19.122Z,76.62
2022-10-18T04:13:24.624Z,75.51
2022-10-18T04:16:31.297Z,74.55
2022-10-18T04:19:37.232Z,73.82
2022-10-18T04:22:42.919Z,74.85
2022-10-18T04:25:48.585Z,74.60
2022-10-18T04:28:54.017Z,74.10
2022-10-18T04:31:59.575Z,73.77
2022-10-18T04:35:05.509Z,73.51
2022-10-18T04:38:11.981Z,73.70
2022-10-18T04:41:17.994Z,74.80
2022-10-18T04:44:24.151Z,75.13
2022-10-18T04:47:29.797Z,75.25
2022-10-18T04:50:36.253Z,75.23
2022-10-18T04:53:44.511Z,75.43
2022-10-18T04:56:51.081Z,75.82
2022-10-18T04:59:56.280Z,76.64
2022-10-18T05:03:02.189Z,75.97
2022-10-18T05:06:07.710Z,76.73
2022-10-18T05:09:14.407Z,75.79
2022-10-18T05:12:20.043Z,75.72
2022-10-18T05:15:26.617Z,75.53
2022-10-18T05:18:33.153Z,75.77
2022-10-18T05:21:39.400Z,75.38
2022-10-18T05:24:44.810Z,75.28
2022-10-18T05:27:50.624Z,75.84
2022-10-18T05:30:57.033Z,76.68
2022-10-18T05:34:02.602Z,76.76
2022-10-18T05:37:08.924Z,77.41
2022-10-18T05:40:15.552Z,77.87
2022-10-18T05:43:21.554Z,78.30
2022-10-18T05:46:28.057Z,78.45
2022-10-18T05:49:32.996Z,78.55
2022-10-18T05:52:38.198Z,80.13
2022-10-18T05:55:44.285Z,80.74
2022-10-18T05:58:50.210Z,81.72
2022-10-18T06:01:57.212Z,82.05
2022-10-18T06:05:02.727Z,82.65
2022-10-18T06:08:10.801Z,82.74
2022-10-18T06:11:22.099Z,82.59
2022-10-18T06:14:21.247Z,81.38
2022-10-18T06:17:30.299Z,80.96
2022-10-18T06:20:36.439Z,80.61
2022-10-18T06:23:46.161Z,79.92
2022-10-18T06:26:51.831Z,79.37
2022-10-18T06:29:58.863Z,79.16
2022-10-18T06:33:05.247Z,78.93
2022-10-18T06:36:17.228Z,77.98
2022-10-18T06:39:40.979Z,77.73
2022-10-18T06:42:55.280Z,77.91
2022-10-18T06:45:57.404Z,76.84
2022-10-18T06:49:02.598Z,76.00
2022-10-18T06:52:09.885Z,74.68
2022-10-18T06:55:17.231Z,74.22
2022-10-18T06:58:23.049Z,73.96
2022-10-18T07:01:30.454Z,72.68
2022-10-18T07:04:37.275Z,72.56
2022-10-18T07:07:50.628Z,71.54
2022-10-18T07:10:56.316Z,70.93
2022-10-18T07:14:01.954Z,70.36
2022-10-18T07:17:08.562Z,69.50
2022-10-18T07:20:18.299Z,69.33
2022-10-18T07:23:24.941Z,68.78
2022-10-18T07:26:44.506Z,67.42
2022-10-18T07:29:49.681Z,66.99
2022-10-18T07:32:55.506Z,66.23
2022-10-18T07:36:04.532Z,65.11
2022-10-18T07:39:13.879Z,64.67
2022-10-18T07:42:19.243Z,64.30
2022-10-18T07:45:25.645Z,63.70
2022-10-18T07:48:31.978Z,62.82
2022-10-18T07:51:40.268Z,61.29
2022-10-18T07:54:46.479Z,60.21
2022-10-18T07:57:51.796Z,58.49
2022-10-18T08:00:58.674Z,57.40
2022-10-18T08:04:09.795Z,57.21
2022-10-18T08:07:17.227Z,57.86
2022-10-18T08:10:24.197Z,59.17
2022-10-18T08:13:29.534Z,58.64
2022-10-18T08:16:39.419Z,57.34
2022-10-18T08:19:52.900Z,56.92
2022-10-18T08:22:51.515Z,56.27
2022-10-18T08:25:57.132Z,54.89
2022-10-18T08:29:21.126Z,56.05
2022-10-18T08:32:12.843Z,55.64
2022-10-18T08:35:17.837Z,54.48
2022-10-18T08:38:24.947Z,54.39
2022-10-18T08:41:35.318Z,52.14
2022-10-18T08:44:46.882Z,52.44
2022-10-18T08:48:00.730Z,52.09
2022-10-18T08:51:06.799Z,50.37
2022-10-18T08:54:28.252Z,49.99
2022-10-18T08:57:35.097Z,50.97
2022-10-18T09:00:45.098Z,49.90
2022-10-18T09:04:22.627Z,49.35
2022-10-18T09:08:05.866Z,48.23
2022-10-18T09:11:38.850Z,48.54
2022-10-18T09:15:10.293Z,48.55
2022-10-18T09:18:57.445Z,48.46
2022-10-18T09:22:10.533Z,47.51
2022-10-18T09:25:53.076Z,46.98
2022-10-18T09:29:12.598Z,47.18
2022-10-18T09:32:42.301Z,46.85
2022-10-18T09:35:58.101Z,46.38
2022-10-18T09:39:07.089Z,45.99
2022-10-18T09:42:23.430Z,45.56
2022-10-18T09:45:49.139Z,45.00
2022-10-18T09:49:04.324Z,44.18
2022-10-18T09:52:10.958Z,44.76
2022-10-18T09:55:32.398Z,44.54
2022-10-18T09:58:31.807Z,43.99
2022-10-18T10:01:40.852Z,43.99
2022-10-18T10:04:46.476Z,43.98
2022-10-18T10:07:58.798Z,43.42
2022-10-18T10:11:04.686Z,43.11
2022-10-18T10:14:33.444Z,42.82
2022-10-18T10:17:39.986Z,42.98
2022-10-18T10:20:53.206Z,42.35
2022-10-18T10:24:07.334Z,41.14
2022-10-18T10:27:16.771Z,40.89
2022-10-18T10:30:37.659Z,41.44
2022-10-18T10:33:51.523Z,41.66
2022-10-18T10:37:06.293Z,41.01
2022-10-18T10:40:36.788Z,41.70
2022-10-18T10:43:52.564Z,41.57
2022-10-18T10:47:00.273Z,41.39
2022-10-18T10:50:05.821Z,41.11
2022-10-18T10:53:21.600Z,39.95
2022-10-18T10:56:38.341Z,39.65
2022-10-18T10:59:46.979Z,40.81
2022-10-18T11:03:00.676Z,39.76
2022-10-18T11:06:04.670Z,40.16
2022-10-18T11:09:10.783Z,40.13
2022-10-18T11:12:39.847Z,39.95
2022-10-18T11:15:56.186Z,39.80
2022-10-18T11:19:03.587Z,39.25
2022-10-18T11:22:09.895Z,39.37
2022-10-18T11:25:15.861Z,38.80
2022-10-18T11:28:56.714Z,37.69
2022-10-18T11:32:35.448Z,37.96
2022-10-18T11:36:00.280Z,38.00
2022-10-18T11:39:24.413Z,38.22
2022-10-18T11:42:40.292Z,38.38
2022-10-18T11:45:56.014Z,38.25
2022-10-18T11:49:33.883Z,38.25
2022-10-18T11:52:48.985Z,38.30
2022-10-18T11:56:22.855Z,37.59
2022-10-18T11:59:52.247Z,36.96
2022-10-18T12:03:36.409Z,36.98
2022-10-18T12:06:48.075Z,37.33
2022-10-18T12:09:56.347Z,37.43
2022-10-18T12:13:09.228Z,36.78
2022-10-18T12:16:16.908Z,37.15
2022-10-18T12:19:34.509Z,37.35
2022-10-18T12:22:57.107Z,37.76
2022-10-18T12:26:10.981Z,37.37
2022-10-18T12:29:48.046Z,37.87
2022-10-18T12:33:03.354Z,38.02
2022-10-18T12:36:22.086Z,37.86
2022-10-18T12:39:43.652Z,37.46
2022-10-18T12:42:38.620Z,37.08
2022-10-18T12:45:47.947Z,37.09
2022-10-18T12:48:58.411Z,37.22
2022-10-18T12:52:18.804Z,36.40
2022-10-18T12:55:31.960Z,36.57
2022-10-18T12:58:41.769Z,36.92
2022-10-18T13:02:03.672Z,37.25
2022-10-18T13:05:00.731Z,36.39
2022-10-18T13:08:05.437Z,36.99
2022-10-18T13:11:29.135Z,38.32
2022-10-18T13:15:05.861Z,39.27
2022-10-18T13:18:13.504Z,38.57
2022-10-18T13:22:05.632Z,39.14
2022-10-18T13:25:41.264Z,40.92
2022-10-18T13:29:02.823Z,41.65
2022-10-18T13:32:40.250Z,41.87
2022-10-18T13:36:12.842Z,42.33
2022-10-18T13:39:20.549Z,42.53
2022-10-18T13:42:44.194Z,42.49
2022-10-18T13:45:59.822Z,42.80
2022-10-18T13:49:10.330Z,42.78
2022-10-18T13:52:36.018Z,43.19
2022-10-18T13:56:22.805Z,43.27
2022-10-18T13:59:49.659Z,44.01
2022-10-18T14:03:56.991Z,44.45
2022-10-18T14:06:50.423Z,44.71
2022-10-18T14:10:06.319Z,44.68
2022-10-18T14:13:13.174Z,44.87
2022-10-18T14:16:44.505Z,44.99
2022-10-18T14:19:53.485Z,45.20
2022-10-18T14:23:24.989Z,45.58
2022-10-18T14:26:35.619Z,45.81
2022-10-18T14:29:41.394Z,46.32
2022-10-18T14:32:47.062Z,46.01
2022-10-18T14:39:10.672Z,46.34
2022-10-18T14:42:15.673Z,47.17
2022-10-18T14:45:30.967Z,47.50
2022-10-18T14:48:36.453Z,47.73
2022-10-18T14:51:44.332Z,47.98
2022-10-18T14:54:52.354Z,48.33
2022-10-18T14:57:58.222Z,48.79
2022-10-18T15:01:04.014Z,49.71
2022-10-18T15:04:16.647Z,50.88
2022-10-18T15:07:24.034Z,51.75
2022-10-18T15:10:38.999Z,51.72
2022-10-18T15:13:44.266Z,51.78
2022-10-18T15:16:51.061Z,52.71
2022-10-18T15:20:10.343Z,54.03
2022-10-18T15:23:39.615Z,53.60
2022-10-18T15:26:45.141Z,54.28
2022-10-18T15:29:50.740Z,54.23
2022-10-18T15:33:16.290Z,54.37
2022-10-18T15:36:27.314Z,55.07
2022-10-18T15:39:37.773Z,55.59
2022-10-18T15:42:51.837Z,56.50
2022-10-18T15:46:05.282Z,56.29
2022-10-18T15:49:10.683Z,57.00
2022-10-18T15:52:48.288Z,57.12
2022-10-18T15:56:02.110Z,57.44
2022-10-18T15:59:11.436Z,58.56
2022-10-18T16:02:16.593Z,60.43
2022-10-18T16:05:25.144Z,61.27
2022-10-18T16:08:39.257Z,61.24
2022-10-18T16:11:44.513Z,62.08
2022-10-18T16:14:49.934Z,62.05
2022-10-18T16:17:57.032Z,61.68
2022-10-18T16:21:04.432Z,61.87
2022-10-18T16:24:09.940Z,62.61
2022-10-18T16:27:15.921Z,62.79
2022-10-18T16:30:34.462Z,63.01
2022-10-18T16:33:39.392Z,63.15
2022-10-18T16:36:40.540Z,63.90
2022-10-18T16:39:47.443Z,64.02
2022-10-18T16:42:53.634Z,63.76
2022-10-18T16:45:59.178Z,64.80
2022-10-18T16:49:05.727Z,64.32
2022-10-18T16:52:11.651Z,65.42
2022-10-18T16:55:19.608Z,64.76
2022-10-18T16:58:32.538Z,64.71
2022-10-18T17:01:38.306Z,65.02
2022-10-18T17:04:36.774Z,64.84
2022-10-18T17:07:43.529Z,65.09
2022-10-18T17:10:49.353Z,65.06
2022-10-18T17:13:55.206Z,65.17
2022-10-18T17:17:02.057Z,65.43
2022-10-18T17:20:09.723Z,66.22
2022-10-18T17:23:16.395Z,66.41
2022-10-18T17:26:29.383Z,66.45
2022-10-18T17:29:32.406Z,67.00
2022-10-18T17:32:38.947Z,67.45
2022-10-18T17:35:43.585Z,66.75
2022-10-18T17:38:50.319Z,66.24
2022-10-18T17:41:55.471Z,65.91
2022-10-18T17:45:00.632Z,66.46
2022-10-18T17:48:06.037Z,66.83
2022-10-18T17:51:11.496Z,67.53
2022-10-18T17:54:16.822Z,67.61
2022-10-18T17:57:23.382Z,67.33
2022-10-18T18:00:31.916Z,67.44
2022-10-18T18:03:38.451Z,67.87
2022-10-18T18:06:47.886Z,68.04
2022-10-18T18:09:53.688Z,67.83
2022-10-18T18:13:01.126Z,67.73
2022-10-18T18:16:05.482Z,67.68
2022-10-18T18:19:12.603Z,68.05
2022-10-18T18:22:18.871Z,68.46
2022-10-18T18:25:24.564Z,67.87
2022-10-18T18:28:29.710Z,68.09
2022-10-18T18:31:40.097Z,68.67
2022-10-18T18:34:43.907Z,68.89
2022-10-18T18:37:49.409Z,69.08
2022-10-18T18:40:56.853Z,69.58
2022-10-18T18:44:09.784Z,69.67
2022-10-18T18:50:23.306Z,70.29
2022-10-18T18:53:29.746Z,70.60
2022-10-18T18:56:38.785Z,71.08
2022-10-18T18:59:44.258Z,71.04
2022-10-18T19:02:50.493Z,71.08
2022-10-18T19:05:58.498Z,71.09
2022-10-18T19:09:11.405Z,70.81
2022-10-18T19:12:20.514Z,71.17
2022-10-18T19:15:26.782Z,71.79
2022-10-18T19:18:33.214Z,71.90
2022-10-18T19:21:42.463Z,71.32
2022-10-18T19:24:48.527Z,71.33
2022-10-18T19:27:54.290Z,71.51
2022-10-18T19:31:01.877Z,71.39
2022-10-18T19:34:08.253Z,71.17
2022-10-18T19:37:16.475Z,71.17
2022-10-18T19:40:22.248Z,71.72
2022-10-18T19:43:27.766Z,71.87
2022-10-18T19:46:34.255Z,71.58
2022-10-18T19:49:39.529Z,71.94
2022-10-18T19:52:45.404Z,72.20
2022-10-18T19:55:51.259Z,72.35
2022-10-18T19:58:57.044Z,72.18
2022-10-18T20:02:02.493Z,72.27
2022-10-18T20:05:08.823Z,72.45
2022-10-18T20:08:15.491Z,72.54
2022-10-18T20:11:24.816Z,71.79
2022-10-18T20:14:30.971Z,71.66
2022-10-18T20:17:36.926Z,71.89
2022-10-18T20:20:47.290Z,71.71
2022-10-18T20:23:53.537Z,71.87
2022-10-18T20:27:00.363Z,71.69
2022-10-18T20:30:10.518Z,71.53
2022-10-18T20:33:14.639Z,71.64
2022-10-18T20:36:22.703Z,71.98
2022-10-18T20:39:28.239Z,72.42
2022-10-18T20:42:33.456Z,72.92
2022-10-18T20:45:31.897Z,72.86
2022-10-18T20:48:24.430Z,72.96
2022-10-18T20:51:30.224Z,73.70
2022-10-18T20:54:36.057Z,73.91
2022-10-18T20:57:37.076Z,73.67
2022-10-18T21:00:42.973Z,74.45
2022-10-18T21:03:47.992Z,74.60
2022-10-18T21:06:55.206Z,74.44
2022-10-18T21:10:00.136Z,74.35
2022-10-18T21:13:05.880Z,75.13
2022-10-18T21:16:12.067Z,75.63
2022-10-18T21:19:22.477Z,75.55
2022-10-18T21:22:20.007Z,75.19
2022-10-18T21:25:26.140Z,76.33
2022-10-18T21:28:30.858Z,75.93
2022-10-18T21:31:45.794Z,77.17
2022-10-18T21:34:52.348Z,76.86
2022-10-18T21:37:59.195Z,76.82
2022-10-18T21:41:06.078Z,76.47
2022-10-18T21:44:12.777Z,75.81
2022-10-18T21:47:19.212Z,75.96
2022-10-18T21:50:25.792Z,76.15
2022-10-18T21:53:34.057Z,75.16
2022-10-18T21:56:42.217Z,76.15
2022-10-18T21:59:48.173Z,76.74
2022-10-18T22:02:47.016Z,77.50
2022-10-18T22:05:53.312Z,77.53
2022-10-18T22:09:07.346Z,77.58
2022-10-18T22:12:13.707Z,77.30
2022-10-18T22:15:19.433Z,76.97
2022-10-18T22:18:26.660Z,76.93
2022-10-18T22:21:33.268Z,77.25
2022-10-18T22:24:38.858Z,77.12
2022-10-18T22:27:45.606Z,77.61
2022-10-18T22:30:52.342Z,77.23
2022-10-18T22:33:58.717Z,77.38
2022-10-18T22:37:05.231Z,77.43
2022-10-18T22:40:11.197Z,77.07
2022-10-18T22:43:17.131Z,77.28
2022-10-18T22:46:25.067Z,77.53
2022-10-18T22:49:30.526Z,77.23
2022-10-18T22:52:36.277Z,77.88
2022-10-18T22:55:42.830Z,78.08
2022-10-18T22:58:49.282Z,77.94
2022-10-18T23:01:56.092Z,77.60
2022-10-18T23:05:03.280Z,77.49
2022-10-18T23:08:09.893Z,77.28
2022-10-18T23:11:15.883Z,79.39
2022-10-18T23:14:21.651Z,79.62
2022-10-18T23:17:27.381Z,79.08
2022-10-18T23:20:34.096Z,78.87
2022-10-18T23:23:41.974Z,79.95
2022-10-18T23:26:48.456Z,79.81
2022-10-18T23:29:54.510Z,79.75
2022-10-18T23:32:59.936Z,79.07
2022-10-18T23:36:05.428Z,78.68
2022-10-18T23:39:13.650Z,78.48
2022-10-18T23:42:20.174Z,78.89
2022-10-18T23:45:25.710Z,79.32
2022-10-18T23:48:31.478Z,79.67
2022-10-18T23:51:37.061Z,79.85
2022-10-18T23:57:48.520Z,80.17
